createdAt,value
2018-09-11T00:00:35.261Z,19.50
2018-09-11T00:03:03.407Z,19.50
2018-09-11T00:05:31.717Z,19.60
2018-09-11T00:07:59.833Z,19.60
2018-09-11T00:10:28.217Z,19.60
2018-09-11T00:12:56.342Z,19.60
2018-09-11T00:15:24.602Z,19.60
2018-09-11T00:17:53.697Z,19.60
2018-09-11T00:20:21.975Z,19.60
2018-09-11T00:22:50.127Z,19.60
2018-09-11T00:25:18.451Z,19.60
2018-09-11T00:27:46.830Z,19.50
2018-09-11T00:30:15.092Z,19.50
2018-09-11T00:32:43.366Z,19.50
2018-09-11T00:35:11.640Z,19.50
2018-09-11T00:37:39.842Z,19.40
2018-09-11T00:40:08.032Z,19.40
2018-09-11T00:42:36.371Z,19.40
2018-09-11T00:45:04.812Z,19.40
2018-09-11T00:47:32.958Z,19.40
2018-09-11T00:50:01.117Z,19.40
2018-09-11T00:52:30.304Z,19.30
2018-09-11T00:54:58.551Z,19.30
2018-09-11T00:57:26.764Z,19.30
2018-09-11T00:59:54.863Z,19.30
2018-09-11T01:02:23.101Z,19.30
2018-09-11T01:04:51.356Z,19.20
2018-09-11T01:07:19.550Z,19.20
2018-09-11T01:09:47.855Z,19.20
2018-09-11T01:12:16.138Z,19.10
2018-09-11T01:14:44.458Z,19.10
2018-09-11T01:17:12.714Z,19.10
2018-09-11T01:19:41.007Z,19.10
2018-09-11T01:22:09.299Z,19.10
2018-09-11T01:24:37.521Z,19.10
2018-09-11T01:27:05.696Z,19.10
2018-09-11T01:29:33.844Z,19.00
2018-09-11T01:32:02.152Z,19.00
2018-09-11T01:34:30.384Z,19.00
2018-09-11T01:36:58.672Z,19.00
2018-09-11T01:39:26.885Z,19.00
2018-09-11T01:41:55.122Z,18.90
2018-09-11T01:44:23.376Z,18.90
2018-09-11T01:46:51.727Z,18.90
2018-09-11T01:49:19.914Z,18.90
2018-09-11T01:51:48.164Z,18.90
2018-09-11T01:54:16.411Z,18.90
2018-09-11T01:56:44.688Z,18.90
2018-09-11T01:59:12.989Z,18.90
2018-09-11T02:01:42.098Z,18.90
2018-09-11T02:04:10.248Z,18.80
2018-09-11T02:06:38.590Z,18.80
2018-09-11T02:09:10.258Z,18.80
2018-09-11T02:11:38.500Z,18.80
2018-09-11T02:14:06.791Z,18.80
2018-09-11T02:16:34.947Z,18.80
2018-09-11T02:19:03.923Z,18.80
2018-09-11T02:21:32.084Z,18.80
2018-09-11T02:24:00.384Z,18.80
2018-09-11T02:26:28.524Z,18.70
2018-09-11T02:28:56.642Z,18.70
2018-09-11T02:31:24.957Z,18.70
2018-09-11T02:33:53.188Z,18.70
2018-09-11T02:36:22.282Z,18.70
2018-09-11T02:38:50.556Z,18.70
2018-09-11T02:41:19.350Z,18.70
2018-09-11T02:43:47.626Z,18.70
2018-09-11T02:46:15.845Z,18.70
2018-09-11T02:48:45.221Z,18.70
2018-09-11T02:51:13.345Z,18.70
2018-09-11T02:53:41.520Z,18.70
2018-09-11T02:56:09.754Z,18.60
2018-09-11T02:58:38.019Z,18.60
2018-09-11T03:01:06.213Z,18.60
2018-09-11T03:03:34.552Z,18.50
2018-09-11T03:06:03.195Z,18.50
2018-09-11T03:08:31.407Z,18.40
2018-09-11T03:10:59.565Z,18.40
2018-09-11T03:13:27.883Z,18.40
2018-09-11T03:15:55.992Z,18.30
2018-09-11T03:18:24.111Z,18.20
2018-09-11T03:20:52.289Z,18.20
2018-09-11T03:23:20.544Z,18.20
2018-09-11T03:25:48.748Z,18.10
2018-09-11T03:28:17.094Z,18.10
2018-09-11T03:30:45.226Z,18.20
2018-09-11T03:33:14.123Z,18.10
2018-09-11T03:35:42.405Z,18.10
2018-09-11T03:38:10.549Z,18.10
2018-09-11T03:40:39.238Z,18.00
2018-09-11T03:43:07.593Z,18.00
2018-09-11T03:45:35.871Z,17.90
2018-09-11T03:48:04.237Z,18.00
2018-09-11T03:50:32.731Z,18.00
2018-09-11T03:53:01.048Z,18.10
2018-09-11T03:55:29.341Z,18.10
2018-09-11T03:57:57.741Z,18.10
2018-09-11T04:00:26.068Z,18.10
2018-09-11T04:02:54.292Z,18.10
2018-09-11T04:05:22.717Z,18.00
2018-09-11T04:07:50.950Z,18.00
2018-09-11T04:10:19.512Z,18.00
2018-09-11T04:12:47.741Z,18.00
2018-09-11T04:15:16.072Z,18.00
2018-09-11T04:17:44.285Z,18.00
2018-09-11T04:20:12.607Z,18.00
2018-09-11T04:22:40.765Z,18.00
2018-09-11T04:25:09.159Z,18.00
2018-09-11T04:27:37.491Z,18.00
2018-09-11T04:30:05.801Z,18.00
2018-09-11T04:32:34.209Z,18.00
2018-09-11T04:35:02.482Z,17.90
2018-09-11T04:37:30.646Z,17.90
2018-09-11T04:39:58.924Z,17.90
2018-09-11T04:42:27.127Z,17.80
2018-09-11T04:44:55.916Z,17.80
2018-09-11T04:47:24.186Z,17.80
2018-09-11T04:49:52.358Z,17.80
2018-09-11T04:52:20.709Z,17.80
2018-09-11T04:54:48.960Z,17.80
2018-09-11T04:57:17.756Z,17.80
2018-09-11T04:59:45.936Z,17.80
2018-09-11T05:02:14.300Z,17.90
2018-09-11T05:04:42.649Z,17.90
2018-09-11T05:07:10.799Z,17.90
2018-09-11T05:09:38.968Z,18.00
2018-09-11T05:12:07.208Z,18.00
2018-09-11T05:14:35.569Z,18.10
2018-09-11T05:17:04.033Z,18.10
2018-09-11T05:19:32.152Z,18.10
2018-09-11T05:22:00.592Z,18.10
2018-09-11T05:24:28.699Z,18.20
2018-09-11T05:26:57.003Z,18.20
2018-09-11T05:29:25.482Z,18.20
2018-09-11T05:31:53.641Z,18.30
2018-09-11T05:34:22.285Z,18.20
2018-09-11T05:36:50.678Z,18.20
2018-09-11T05:39:18.986Z,18.20
2018-09-11T05:41:47.332Z,18.20
2018-09-11T05:44:15.444Z,18.20
2018-09-11T05:46:43.730Z,18.10
2018-09-11T05:49:11.859Z,18.00
2018-09-11T05:51:40.757Z,18.00
2018-09-11T05:54:09.295Z,18.00
2018-09-11T05:56:37.748Z,18.00
2018-09-11T05:59:06.180Z,18.00
2018-09-11T06:01:34.525Z,18.10
2018-09-11T06:04:02.701Z,18.20
2018-09-11T06:06:30.773Z,18.30
2018-09-11T06:08:58.901Z,18.40
2018-09-11T06:11:27.863Z,18.40
2018-09-11T06:13:55.974Z,18.50
2018-09-11T06:16:24.728Z,18.50
2018-09-11T06:18:52.940Z,18.50
2018-09-11T06:21:21.403Z,18.60
2018-09-11T06:23:49.549Z,18.80
2018-09-11T06:26:17.899Z,19.00
2018-09-11T06:28:46.053Z,19.30
2018-09-11T06:31:14.253Z,19.50
2018-09-11T06:33:42.623Z,19.80
2018-09-11T06:36:10.855Z,20.00
2018-09-11T06:38:39.289Z,20.00
2018-09-11T06:41:07.439Z,20.00
2018-09-11T06:43:35.723Z,20.10
2018-09-11T06:46:03.893Z,20.10
2018-09-11T06:48:32.724Z,20.10
2018-09-11T06:51:00.896Z,20.10
2018-09-11T06:53:29.013Z,20.20
2018-09-11T06:55:57.132Z,20.30
2018-09-11T06:58:25.419Z,20.40
2018-09-11T07:00:53.740Z,20.50
2018-09-11T07:03:22.369Z,20.40
2018-09-11T07:05:50.682Z,20.60
2018-09-11T07:08:18.983Z,20.70
2018-09-11T07:10:47.334Z,20.80
2018-09-11T07:13:15.688Z,21.00
2018-09-11T07:15:43.850Z,21.00
2018-09-11T07:18:12.150Z,21.00
2018-09-11T07:20:40.330Z,21.20
2018-09-11T07:23:08.480Z,21.20
2018-09-11T07:25:36.634Z,21.30
2018-09-11T07:28:04.942Z,21.30
2018-09-11T07:30:33.245Z,21.40
2018-09-11T07:33:01.579Z,21.50
2018-09-11T07:35:30.370Z,21.50
2018-09-11T07:37:58.786Z,21.60
2018-09-11T07:40:26.795Z,21.70
2018-09-11T07:42:54.948Z,21.80
2018-09-11T07:45:23.164Z,21.80
2018-09-11T07:47:51.261Z,21.80
2018-09-11T07:50:19.467Z,21.80
2018-09-11T07:52:47.641Z,21.90
2018-09-11T07:55:15.799Z,21.90
2018-09-11T07:57:44.053Z,22.00
2018-09-11T08:00:12.079Z,22.00
2018-09-11T08:02:40.183Z,22.10
2018-09-11T08:05:08.412Z,22.20
2018-09-11T08:07:36.687Z,22.30
2018-09-11T08:10:04.905Z,22.40
2018-09-11T08:12:33.103Z,22.30
2018-09-11T08:15:01.364Z,22.20
2018-09-11T08:17:29.581Z,22.30
2018-09-11T08:19:57.922Z,22.30
2018-09-11T08:22:26.066Z,22.40
2018-09-11T08:24:54.189Z,22.50
2018-09-11T08:27:22.346Z,22.50
2018-09-11T08:29:50.679Z,22.60
2018-09-11T08:32:18.865Z,22.60
2018-09-11T08:34:47.078Z,22.60
2018-09-11T08:37:15.228Z,22.80
2018-09-11T08:39:43.459Z,22.90
2018-09-11T08:42:11.674Z,23.10
2018-09-11T08:44:39.922Z,23.20
2018-09-11T08:47:08.098Z,23.10
2018-09-11T08:49:36.382Z,23.40
2018-09-11T08:52:05.809Z,23.80
2018-09-11T08:54:33.902Z,24.20
2018-09-11T08:57:02.074Z,24.50
2018-09-11T08:59:30.835Z,24.90
2018-09-11T09:01:59.039Z,25.50
2018-09-11T09:04:27.287Z,25.80
2018-09-11T09:06:55.503Z,25.80
2018-09-11T09:09:23.779Z,26.30
2018-09-11T09:11:51.926Z,27.40
2018-09-11T09:14:20.259Z,28.60
2018-09-11T09:16:48.427Z,29.40
2018-09-11T09:19:16.745Z,30.00
2018-09-11T09:21:44.915Z,30.50
2018-09-11T09:24:13.018Z,30.80
2018-09-11T09:26:41.167Z,31.10
2018-09-11T09:29:09.396Z,31.40
2018-09-11T09:31:37.585Z,31.40
2018-09-11T09:34:05.991Z,31.30
2018-09-11T09:36:34.349Z,31.20
2018-09-11T09:39:03.900Z,31.00
2018-09-11T09:41:32.041Z,31.10
2018-09-11T09:44:00.178Z,30.80
2018-09-11T09:46:28.344Z,30.80
2018-09-11T09:48:56.683Z,31.90
2018-09-11T09:51:24.913Z,33.20
2018-09-11T09:53:53.125Z,33.90
2018-09-11T09:56:21.439Z,33.40
2018-09-11T09:58:49.681Z,33.40
2018-09-11T10:01:23.646Z,33.00
2018-09-11T10:03:51.975Z,32.70
2018-09-11T10:06:20.104Z,33.00
2018-09-11T10:08:48.269Z,33.20
2018-09-11T10:11:16.476Z,33.30
2018-09-11T10:13:44.707Z,34.60
2018-09-11T10:16:12.921Z,34.80
2018-09-11T10:18:41.061Z,35.30
2018-09-11T10:21:09.334Z,35.50
2018-09-11T10:23:37.505Z,35.60
2018-09-11T10:26:05.803Z,35.50
2018-09-11T10:28:34.501Z,35.10
2018-09-11T10:31:02.858Z,35.60
2018-09-11T10:33:31.103Z,35.90
2018-09-11T10:35:59.405Z,35.80
2018-09-11T10:38:28.502Z,35.70
2018-09-11T10:40:56.681Z,35.40
2018-09-11T10:43:25.016Z,35.70
2018-09-11T10:45:53.216Z,36.40
2018-09-11T10:48:21.332Z,36.30
2018-09-11T10:50:49.624Z,36.50
2018-09-11T10:53:17.873Z,36.80
2018-09-11T10:55:46.022Z,36.60
2018-09-11T10:58:14.275Z,36.20
2018-09-11T11:00:42.412Z,35.90
2018-09-11T11:03:10.744Z,36.20
2018-09-11T11:05:39.769Z,36.90
2018-09-11T11:08:08.061Z,38.00
2018-09-11T11:10:36.392Z,38.70
2018-09-11T11:13:04.917Z,38.20
2018-09-11T11:15:33.127Z,38.20
2018-09-11T11:18:01.344Z,38.40
2018-09-11T11:20:29.570Z,38.20
2018-09-11T11:22:57.813Z,38.20
2018-09-11T11:25:26.039Z,37.60
2018-09-11T11:27:54.359Z,38.00
2018-09-11T11:30:22.591Z,37.90
2018-09-11T11:32:50.924Z,37.60
2018-09-11T11:35:19.176Z,37.10
2018-09-11T11:37:47.368Z,37.10
2018-09-11T11:40:15.506Z,36.70
2018-09-11T11:42:43.694Z,36.60
2018-09-11T11:45:12.666Z,36.60
2018-09-11T11:47:41.189Z,36.60
2018-09-11T11:50:16.171Z,36.30
2018-09-11T11:52:44.337Z,36.50
2018-09-11T11:55:12.605Z,35.80
2018-09-11T11:57:40.651Z,35.80
2018-09-11T12:00:09.017Z,36.10
2018-09-11T12:02:37.165Z,36.80
2018-09-11T12:05:05.465Z,37.70
2018-09-11T12:07:34.073Z,38.20
2018-09-11T12:10:02.267Z,37.90
2018-09-11T12:12:30.456Z,38.10
2018-09-11T12:14:58.623Z,37.40
2018-09-11T12:17:26.782Z,36.40
2018-09-11T12:19:55.132Z,35.50
2018-09-11T12:22:23.576Z,35.40
2018-09-11T12:24:51.818Z,36.00
2018-09-11T12:27:20.070Z,36.10
2018-09-11T12:29:48.181Z,36.30
2018-09-11T12:32:16.467Z,36.60
2018-09-11T12:34:44.728Z,36.20
2018-09-11T12:37:13.007Z,35.90
2018-09-11T12:39:41.175Z,36.70
2018-09-11T12:42:09.549Z,36.50
2018-09-11T12:44:37.778Z,36.90
2018-09-11T12:47:07.198Z,37.70
2018-09-11T12:49:35.777Z,38.30
2018-09-11T12:52:03.920Z,39.40
2018-09-11T12:54:32.137Z,40.60
2018-09-11T12:57:00.282Z,40.70
2018-09-11T12:59:28.601Z,40.80
2018-09-11T13:01:56.937Z,40.60
2018-09-11T13:04:25.185Z,41.60
2018-09-11T13:06:53.981Z,40.60
2018-09-11T13:09:22.276Z,41.30
2018-09-11T13:11:50.552Z,41.30
2018-09-11T13:14:19.044Z,40.20
2018-09-11T13:16:47.341Z,39.80
2018-09-11T13:19:15.611Z,39.10
2018-09-11T13:21:44.594Z,39.10
2018-09-11T13:24:13.047Z,39.30
2018-09-11T13:26:41.247Z,39.10
2018-09-11T13:29:09.476Z,39.30
2018-09-11T13:31:37.723Z,39.90
2018-09-11T13:34:06.174Z,40.20
2018-09-11T13:36:34.474Z,40.10
2018-09-11T13:39:04.093Z,39.80
2018-09-11T13:41:32.238Z,39.30
2018-09-11T13:44:00.510Z,39.30
2018-09-11T13:46:28.782Z,38.60
2018-09-11T13:48:57.799Z,38.80
2018-09-11T13:51:26.053Z,38.10
2018-09-11T13:53:54.315Z,38.50
2018-09-11T13:56:22.459Z,38.30
2018-09-11T13:58:50.647Z,38.50
2018-09-11T14:01:18.797Z,38.40
2018-09-11T14:03:46.966Z,38.00
2018-09-11T14:06:15.201Z,37.60
2018-09-11T14:08:44.040Z,37.70
2018-09-11T14:11:12.440Z,37.60
2018-09-11T14:13:40.693Z,37.50
2018-09-11T14:16:08.857Z,38.10
2018-09-11T14:18:37.073Z,38.10
2018-09-11T14:21:06.141Z,38.50
2018-09-11T14:23:34.239Z,38.50
2018-09-11T14:26:03.316Z,38.10
2018-09-11T14:28:32.496Z,37.70
2018-09-11T14:31:00.666Z,37.20
2018-09-11T14:33:28.884Z,36.60
2018-09-11T14:35:57.181Z,35.80
2018-09-11T14:38:25.514Z,35.30
2018-09-11T14:40:53.775Z,34.30
2018-09-11T14:43:21.980Z,33.90
2018-09-11T14:45:50.245Z,33.90
2018-09-11T14:48:18.394Z,33.50
2018-09-11T14:50:46.556Z,33.20
2018-09-11T14:53:14.689Z,32.70
2018-09-11T14:55:42.833Z,32.20
2018-09-11T14:58:11.307Z,31.80
2018-09-11T15:00:39.505Z,31.10
2018-09-11T15:03:07.730Z,30.80
2018-09-11T15:05:35.984Z,30.70
2018-09-11T15:08:04.214Z,30.50
2018-09-11T15:10:32.499Z,30.20
2018-09-11T15:13:00.755Z,30.00
2018-09-11T15:15:28.991Z,29.60
2018-09-11T15:17:57.819Z,29.40
2018-09-11T15:20:26.024Z,29.30
2018-09-11T15:22:54.280Z,29.20
2018-09-11T15:25:22.543Z,29.10
2018-09-11T15:27:50.748Z,29.00
2018-09-11T15:30:19.011Z,28.80
2018-09-11T15:32:47.247Z,28.70
2018-09-11T15:35:15.387Z,28.50
2018-09-11T15:37:43.567Z,28.40
2018-09-11T15:40:11.819Z,28.40
2018-09-11T15:42:39.941Z,28.40
2018-09-11T15:45:08.089Z,28.40
2018-09-11T15:47:37.169Z,28.30
2018-09-11T15:50:05.436Z,28.20
2018-09-11T15:52:33.731Z,28.30
2018-09-11T15:55:01.894Z,28.20
2018-09-11T15:57:30.112Z,28.20
2018-09-11T15:59:58.199Z,28.20
2018-09-11T16:02:26.384Z,28.10
2018-09-11T16:04:54.590Z,28.10
2018-09-11T16:07:23.101Z,28.00
2018-09-11T16:09:51.359Z,28.00
2018-09-11T16:12:19.617Z,28.00
2018-09-11T16:14:47.893Z,28.00
2018-09-11T16:17:16.100Z,27.90
2018-09-11T16:19:44.365Z,27.70
2018-09-11T16:22:12.550Z,27.60
2018-09-11T16:24:40.945Z,27.50
2018-09-11T16:27:09.290Z,27.40
2018-09-11T16:29:37.530Z,27.30
2018-09-11T16:32:05.784Z,27.20
2018-09-11T16:34:35.088Z,27.20
2018-09-11T16:37:04.234Z,27.20
2018-09-11T16:39:32.481Z,27.10
2018-09-11T16:42:00.664Z,27.10
2018-09-11T16:44:28.900Z,27.00
2018-09-11T16:46:57.206Z,27.00
2018-09-11T16:49:25.426Z,26.90
2018-09-11T16:51:53.640Z,26.80
2018-09-11T16:54:21.869Z,26.80
2018-09-11T16:56:50.066Z,26.70
2018-09-11T16:59:18.247Z,26.60
2018-09-11T17:01:46.368Z,26.50
2018-09-11T17:04:14.536Z,26.40
2018-09-11T17:06:42.672Z,26.30
2018-09-11T17:09:10.810Z,26.20
2018-09-11T17:11:39.070Z,26.10
2018-09-11T17:14:07.208Z,26.10
2018-09-11T17:16:35.425Z,26.00
2018-09-11T17:19:03.610Z,25.90
2018-09-11T17:21:31.686Z,25.80
2018-09-11T17:23:59.979Z,25.70
2018-09-11T17:26:28.091Z,25.60
2018-09-11T17:28:56.354Z,25.40
2018-09-11T17:31:24.496Z,25.40
2018-09-11T17:33:52.627Z,25.30
2018-09-11T17:36:21.480Z,25.30
2018-09-11T17:38:49.691Z,25.20
2018-09-11T17:41:17.837Z,25.20
2018-09-11T17:43:46.075Z,25.10
2018-09-11T17:46:14.250Z,25.00
2018-09-11T17:48:42.615Z,24.90
2018-09-11T17:51:10.731Z,24.90
2018-09-11T17:53:38.898Z,24.70
2018-09-11T17:56:07.066Z,24.70
2018-09-11T17:58:35.395Z,24.60
2018-09-11T18:01:03.663Z,24.50
2018-09-11T18:03:33.567Z,24.40
2018-09-11T18:06:01.875Z,24.30
2018-09-11T18:08:30.175Z,24.20
2018-09-11T18:10:58.381Z,24.10
2018-09-11T18:13:26.513Z,24.00
2018-09-11T18:15:54.871Z,24.00
2018-09-11T18:18:23.842Z,23.90
2018-09-11T18:20:52.289Z,23.80
2018-09-11T18:23:20.514Z,23.70
2018-09-11T18:25:48.802Z,23.70
2018-09-11T18:28:16.987Z,23.70
2018-09-11T18:30:45.180Z,23.60
2018-09-11T18:33:13.270Z,23.60
2018-09-11T18:35:41.458Z,23.50
2018-09-11T18:38:09.618Z,23.40
2018-09-11T18:40:37.756Z,23.40
2018-09-11T18:43:06.165Z,23.30
2018-09-11T18:45:34.486Z,23.20
2018-09-11T18:48:02.924Z,23.20
2018-09-11T18:50:31.109Z,23.10
2018-09-11T18:52:59.345Z,23.00
2018-09-11T18:55:27.479Z,23.00
2018-09-11T18:57:55.681Z,22.90
2018-09-11T19:00:28.408Z,22.90
2018-09-11T19:02:58.312Z,22.90
2018-09-11T19:05:27.363Z,22.80
2018-09-11T19:07:55.924Z,22.80
2018-09-11T19:10:24.214Z,22.80
2018-09-11T19:12:52.384Z,22.70
2018-09-11T19:15:20.780Z,22.70
2018-09-11T19:17:48.949Z,22.70
2018-09-11T19:20:17.377Z,22.60
2018-09-11T19:22:46.244Z,22.60
2018-09-11T19:25:14.560Z,22.60
2018-09-11T19:27:43.653Z,22.60
2018-09-11T19:30:12.049Z,22.60
2018-09-11T19:32:40.655Z,22.60
2018-09-11T19:35:08.966Z,22.60
2018-09-11T19:37:37.513Z,22.60
2018-09-11T19:40:06.613Z,22.60
2018-09-11T19:42:35.417Z,22.60
2018-09-11T19:45:03.957Z,22.60
2018-09-11T19:47:32.196Z,22.70
2018-09-11T19:50:00.467Z,22.80
2018-09-11T19:52:28.967Z,22.80
2018-09-11T19:54:57.107Z,22.80
2018-09-11T19:57:25.371Z,22.80
2018-09-11T19:59:54.387Z,22.80
2018-09-11T20:02:22.561Z,22.80
2018-09-11T20:04:50.885Z,22.70
2018-09-11T20:07:18.933Z,22.70
2018-09-11T20:09:47.797Z,22.60
2018-09-11T20:12:16.065Z,22.60
2018-09-11T20:14:44.328Z,22.60
2018-09-11T20:17:12.470Z,22.60
2018-09-11T20:19:40.611Z,22.70
2018-09-11T20:22:09.966Z,22.70
2018-09-11T20:24:38.107Z,22.60
2018-09-11T20:27:07.421Z,22.70
2018-09-11T20:29:35.588Z,22.60
2018-09-11T20:32:03.841Z,22.60
2018-09-11T20:34:31.998Z,22.60
2018-09-11T20:37:00.169Z,22.50
2018-09-11T20:39:28.354Z,22.40
2018-09-11T20:41:57.107Z,22.40
2018-09-11T20:44:25.395Z,22.40
2018-09-11T20:46:53.623Z,22.30
2018-09-11T20:49:21.793Z,22.20
2018-09-11T20:51:50.056Z,22.10
2018-09-11T20:54:18.280Z,22.00
2018-09-11T20:56:46.550Z,21.90
2018-09-11T20:59:14.883Z,21.90
2018-09-11T21:01:43.125Z,21.90
2018-09-11T21:04:11.252Z,21.80
2018-09-11T21:06:39.498Z,21.80
2018-09-11T21:09:08.592Z,21.70
2018-09-11T21:11:36.795Z,21.70
2018-09-11T21:14:04.880Z,21.70
2018-09-11T21:16:33.240Z,21.70
2018-09-11T21:19:01.340Z,21.70
2018-09-11T21:21:29.530Z,21.60
2018-09-11T21:23:57.659Z,21.60
2018-09-11T21:26:26.005Z,21.60
2018-09-11T21:28:54.217Z,21.60
2018-09-11T21:31:22.495Z,21.60
2018-09-11T21:33:50.735Z,21.60
2018-09-11T21:36:19.127Z,21.50
2018-09-11T21:38:47.247Z,21.50
2018-09-11T21:41:15.538Z,21.50
2018-09-11T21:43:43.793Z,21.50
2018-09-11T21:46:12.257Z,21.50
2018-09-11T21:48:41.026Z,21.50
2018-09-11T21:51:09.137Z,21.50
2018-09-11T21:53:38.087Z,21.40
2018-09-11T21:56:06.264Z,21.40
2018-09-11T21:58:35.650Z,21.30
2018-09-11T22:01:09.806Z,21.30
2018-09-11T22:03:38.218Z,21.30
2018-09-11T22:06:06.656Z,21.30
2018-09-11T22:08:35.289Z,21.30
2018-09-11T22:11:03.616Z,21.20
2018-09-11T22:13:31.926Z,21.20
2018-09-11T22:16:00.228Z,21.10
2018-09-11T22:18:28.772Z,21.00
2018-09-11T22:20:57.305Z,21.00
2018-09-11T22:23:25.541Z,20.90
2018-09-11T22:25:53.763Z,20.90
2018-09-11T22:28:22.043Z,20.90
2018-09-11T22:30:50.245Z,20.90
2018-09-11T22:33:18.442Z,20.80
2018-09-11T22:35:46.973Z,20.80
2018-09-11T22:38:15.117Z,20.70
2018-09-11T22:40:43.373Z,20.60
2018-09-11T22:43:11.530Z,20.60
2018-09-11T22:45:39.883Z,20.60
2018-09-11T22:48:08.005Z,20.50
2018-09-11T22:50:36.348Z,20.50
2018-09-11T22:53:04.491Z,20.50
2018-09-11T22:55:32.815Z,20.50
2018-09-11T22:58:00.940Z,20.40
2018-09-11T23:00:29.102Z,20.40
2018-09-11T23:02:57.365Z,20.40
2018-09-11T23:05:25.646Z,20.40
2018-09-11T23:07:53.813Z,20.40
2018-09-11T23:10:22.154Z,20.30
2018-09-11T23:12:50.289Z,20.30
2018-09-11T23:15:18.601Z,20.30
2018-09-11T23:17:46.801Z,20.30
2018-09-11T23:20:15.130Z,20.30
2018-09-11T23:22:43.765Z,20.20
2018-09-11T23:25:12.082Z,20.30
2018-09-11T23:27:40.281Z,20.20
2018-09-11T23:30:08.587Z,20.20
2018-09-11T23:32:36.944Z,20.10
2018-09-11T23:35:05.532Z,20.10
2018-09-11T23:37:33.735Z,20.20
2018-09-11T23:40:01.976Z,20.10
2018-09-11T23:42:30.309Z,20.10
2018-09-11T23:44:58.624Z,20.10
2018-09-11T23:47:26.746Z,20.00
2018-09-11T23:49:55.058Z,20.10
2018-09-11T23:52:23.228Z,20.00
2018-09-11T23:54:51.470Z,20.00
2018-09-11T23:57:19.776Z,20.00
2018-09-11T23:59:48.071Z,19.90
